createdAt,value
2018-11-26T00:00:42.014Z,4.90
2018-11-26T00:03:11.137Z,4.90
2018-11-26T00:05:39.834Z,4.90
2018-11-26T00:08:09.161Z,4.90
2018-11-26T00:10:48.791Z,4.90
2018-11-26T00:13:16.801Z,5.00
2018-11-26T00:15:44.873Z,5.00
2018-11-26T00:18:12.835Z,4.90
2018-11-26T00:20:40.832Z,5.00
2018-11-26T00:23:08.905Z,4.90
2018-11-26T00:25:43.645Z,4.90
2018-11-26T00:28:11.625Z,4.90
2018-11-26T00:30:39.605Z,5.00
2018-11-26T00:33:07.601Z,5.00
2018-11-26T00:35:35.545Z,5.00
2018-11-26T00:38:03.497Z,5.00
2018-11-26T00:40:31.450Z,5.00
2018-11-26T00:42:59.504Z,5.00
2018-11-26T00:45:27.477Z,5.00
2018-11-26T00:47:55.460Z,5.00
2018-11-26T00:50:23.417Z,5.00
2018-11-26T00:52:51.393Z,5.00
2018-11-26T00:55:19.370Z,5.00
2018-11-26T00:57:47.348Z,4.90
2018-11-26T01:00:15.697Z,4.90
2018-11-26T01:02:43.654Z,4.90
2018-11-26T01:05:29.655Z,4.90
2018-11-26T01:07:57.630Z,4.80
2018-11-26T01:10:25.620Z,4.80
2018-11-26T01:12:53.587Z,4.80
2018-11-26T01:15:21.704Z,4.90
2018-11-26T01:17:49.712Z,4.90
2018-11-26T01:20:17.694Z,4.90
2018-11-26T01:22:45.666Z,4.90
2018-11-26T01:25:13.613Z,4.90
2018-11-26T01:27:41.585Z,4.90
2018-11-26T01:30:09.889Z,4.90
2018-11-26T01:32:37.930Z,4.80
2018-11-26T01:35:07.149Z,4.80
2018-11-26T01:37:35.161Z,4.80
2018-11-26T01:40:03.157Z,4.80
2018-11-26T01:42:31.141Z,4.80
2018-11-26T01:44:59.308Z,4.80
2018-11-26T01:47:27.269Z,4.80
2018-11-26T01:49:55.267Z,4.80
2018-11-26T01:52:23.290Z,4.80
2018-11-26T01:54:51.244Z,4.90
2018-11-26T01:57:19.242Z,4.80
2018-11-26T01:59:47.265Z,4.90
2018-11-26T02:02:15.220Z,4.90
2018-11-26T02:04:43.170Z,4.90
2018-11-26T02:07:11.234Z,4.80
2018-11-26T02:09:39.281Z,4.80
2018-11-26T02:12:07.256Z,4.80
2018-11-26T02:14:35.208Z,4.90
2018-11-26T02:17:03.299Z,4.90
2018-11-26T02:19:31.374Z,4.90
2018-11-26T02:21:59.344Z,4.90
2018-11-26T02:24:27.409Z,4.90
2018-11-26T02:26:55.374Z,4.90
2018-11-26T02:29:23.363Z,4.90
2018-11-26T02:31:51.318Z,4.80
2018-11-26T02:34:19.300Z,4.80
2018-11-26T02:36:47.242Z,4.90
2018-11-26T02:39:15.311Z,4.90
2018-11-26T02:41:43.302Z,4.90
2018-11-26T02:44:11.333Z,4.80
2018-11-26T02:46:39.334Z,4.80
2018-11-26T02:49:07.307Z,4.80
2018-11-26T02:51:35.281Z,4.80
2018-11-26T02:54:03.978Z,4.90
2018-11-26T02:56:32.055Z,4.90
2018-11-26T02:59:00.046Z,4.90
2018-11-26T03:01:29.704Z,4.90
2018-11-26T03:03:57.683Z,4.90
2018-11-26T03:06:25.639Z,4.80
2018-11-26T03:08:53.598Z,4.80
2018-11-26T03:11:21.601Z,4.80
2018-11-26T03:13:49.554Z,4.80
2018-11-26T03:16:17.514Z,4.70
2018-11-26T03:18:45.483Z,4.70
2018-11-26T03:21:13.451Z,4.70
2018-11-26T03:23:41.409Z,4.70
2018-11-26T03:26:09.391Z,4.80
2018-11-26T03:28:37.456Z,4.70
2018-11-26T03:31:06.941Z,4.70
2018-11-26T03:33:34.961Z,4.70
2018-11-26T03:36:02.921Z,4.70
2018-11-26T03:39:07.153Z,4.70
2018-11-26T03:41:35.193Z,4.70
2018-11-26T03:44:03.170Z,4.60
2018-11-26T03:46:31.126Z,4.60
2018-11-26T03:48:59.089Z,4.60
2018-11-26T03:51:27.073Z,4.60
2018-11-26T03:53:55.014Z,4.60
2018-11-26T03:56:23.049Z,4.60
2018-11-26T03:58:51.917Z,4.60
2018-11-26T04:01:19.943Z,4.50
2018-11-26T04:03:48.383Z,4.60
2018-11-26T04:06:17.208Z,4.60
2018-11-26T04:08:45.153Z,4.50
2018-11-26T04:11:13.165Z,4.50
2018-11-26T04:13:41.135Z,4.50
2018-11-26T04:16:09.100Z,4.50
2018-11-26T04:18:37.073Z,4.50
2018-11-26T04:21:05.590Z,4.40
2018-11-26T04:23:33.569Z,4.40
2018-11-26T04:26:01.594Z,4.40
2018-11-26T04:28:29.569Z,4.50
2018-11-26T04:30:57.521Z,4.50
2018-11-26T04:33:25.493Z,4.40
2018-11-26T04:35:53.490Z,4.50
2018-11-26T04:38:21.543Z,4.40
2018-11-26T04:40:49.537Z,4.40
2018-11-26T04:43:17.565Z,4.40
2018-11-26T04:45:45.539Z,4.40
2018-11-26T04:48:13.598Z,4.40
2018-11-26T04:50:41.605Z,4.40
2018-11-26T04:53:09.650Z,4.40
2018-11-26T04:55:37.897Z,4.40
2018-11-26T04:58:05.903Z,4.40
2018-11-26T05:00:33.874Z,4.40
2018-11-26T05:03:01.943Z,4.40
2018-11-26T05:05:29.926Z,4.40
2018-11-26T05:07:57.972Z,4.40
2018-11-26T05:10:26.184Z,4.40
2018-11-26T05:12:54.139Z,4.40
2018-11-26T05:15:22.185Z,4.30
2018-11-26T05:17:50.209Z,4.30
2018-11-26T05:20:18.178Z,4.30
2018-11-26T05:22:46.160Z,4.30
2018-11-26T05:25:14.170Z,4.20
2018-11-26T05:27:42.246Z,4.20
2018-11-26T05:30:11.251Z,4.10
2018-11-26T05:32:39.229Z,4.20
2018-11-26T05:35:08.391Z,4.10
2018-11-26T05:37:36.367Z,4.10
2018-11-26T05:40:06.194Z,4.10
2018-11-26T05:42:34.194Z,4.00
2018-11-26T05:45:02.162Z,4.20
2018-11-26T05:47:30.145Z,4.10
2018-11-26T05:49:58.133Z,4.10
2018-11-26T05:52:26.114Z,4.10
2018-11-26T05:54:54.073Z,4.00
2018-11-26T05:57:22.054Z,4.00
2018-11-26T05:59:50.021Z,4.00
2018-11-26T06:02:17.986Z,4.00
2018-11-26T06:04:45.965Z,3.90
2018-11-26T06:07:13.962Z,3.90
2018-11-26T06:09:41.948Z,3.90
2018-11-26T06:12:09.965Z,3.90
2018-11-26T06:14:37.931Z,4.00
2018-11-26T06:17:06.314Z,4.00
2018-11-26T06:19:34.281Z,4.00
2018-11-26T06:22:02.285Z,4.00
2018-11-26T06:24:30.334Z,4.00
2018-11-26T06:26:58.328Z,4.00
2018-11-26T06:29:26.368Z,3.90
2018-11-26T06:31:54.371Z,3.80
2018-11-26T06:34:22.367Z,3.90
2018-11-26T06:36:50.389Z,3.80
2018-11-26T06:39:18.708Z,3.70
2018-11-26T06:41:46.725Z,3.70
2018-11-26T06:44:14.701Z,3.80
2018-11-26T06:46:42.693Z,3.70
2018-11-26T06:49:10.683Z,3.70
2018-11-26T06:51:38.832Z,3.70
2018-11-26T06:54:07.006Z,3.60
2018-11-26T06:56:34.973Z,3.60
2018-11-26T06:59:03.012Z,3.60
2018-11-26T07:01:31.028Z,3.60
2018-11-26T07:03:58.989Z,3.60
2018-11-26T07:06:27.030Z,3.50
2018-11-26T07:08:55.016Z,3.50
2018-11-26T07:11:23.000Z,3.50
2018-11-26T07:13:50.955Z,3.50
2018-11-26T07:16:18.906Z,3.40
2018-11-26T07:18:46.977Z,3.40
2018-11-26T07:21:14.942Z,3.50
2018-11-26T07:23:42.981Z,3.50
2018-11-26T07:28:45.615Z,3.50
2018-11-26T07:31:13.613Z,3.40
2018-11-26T07:33:41.590Z,3.50
2018-11-26T07:36:11.447Z,3.40
2018-11-26T07:38:37.616Z,3.50
2018-11-26T07:41:06.079Z,3.50
2018-11-26T07:43:34.088Z,3.40
2018-11-26T07:46:02.090Z,3.40
2018-11-26T07:48:30.090Z,3.40
2018-11-26T07:50:58.121Z,3.40
2018-11-26T07:53:26.092Z,3.30
2018-11-26T07:55:54.079Z,3.40
2018-11-26T07:58:22.164Z,3.40
2018-11-26T08:00:50.225Z,3.50
2018-11-26T08:03:18.216Z,3.50
2018-11-26T08:05:46.151Z,3.40
2018-11-26T08:08:14.092Z,3.50
2018-11-26T08:10:42.098Z,3.60
2018-11-26T08:13:10.066Z,3.50
2018-11-26T08:15:38.065Z,3.50
2018-11-26T08:18:06.233Z,3.50
2018-11-26T08:20:34.232Z,3.50
2018-11-26T08:23:03.248Z,3.50
2018-11-26T08:25:31.227Z,3.60
2018-11-26T08:27:59.282Z,3.60
2018-11-26T08:30:27.786Z,3.60
2018-11-26T08:32:56.806Z,3.50
2018-11-26T08:35:25.007Z,3.50
2018-11-26T08:37:58.504Z,3.40
2018-11-26T08:40:34.790Z,3.50
2018-11-26T08:43:09.126Z,3.50
2018-11-26T08:45:37.701Z,3.30
2018-11-26T08:48:11.773Z,3.20
2018-11-26T08:50:39.953Z,3.20
2018-11-26T08:53:07.937Z,3.20
2018-11-26T08:55:35.928Z,3.10
2018-11-26T08:58:03.910Z,3.10
2018-11-26T09:00:31.905Z,3.10
2018-11-26T09:03:02.991Z,3.00
2018-11-26T09:05:40.431Z,3.00
2018-11-26T09:08:08.532Z,3.00
2018-11-26T09:10:36.522Z,3.10
2018-11-26T09:13:04.646Z,3.20
2018-11-26T09:15:32.618Z,3.20
2018-11-26T09:18:00.605Z,3.20
2018-11-26T09:20:28.879Z,3.10
2018-11-26T09:22:56.597Z,3.10
2018-11-26T09:25:24.597Z,3.20
2018-11-26T09:27:52.610Z,3.10
2018-11-26T09:30:20.613Z,2.90
2018-11-26T09:32:48.587Z,2.90
2018-11-26T09:35:16.778Z,3.00
2018-11-26T09:37:44.796Z,3.10
2018-11-26T09:40:14.893Z,3.30
2018-11-26T09:42:43.052Z,3.20
2018-11-26T09:45:14.385Z,3.30
2018-11-26T09:47:42.342Z,3.30
2018-11-26T09:50:15.099Z,3.30
2018-11-26T09:52:43.126Z,3.40
2018-11-26T09:55:11.840Z,3.50
2018-11-26T09:57:39.818Z,3.50
2018-11-26T10:00:10.889Z,3.60
2018-11-26T10:02:39.389Z,3.50
2018-11-26T10:05:12.539Z,3.60
2018-11-26T10:07:40.540Z,3.60
2018-11-26T10:10:10.020Z,3.60
2018-11-26T10:12:38.626Z,3.60
2018-11-26T10:15:21.212Z,3.60
2018-11-26T10:17:49.204Z,3.70
2018-11-26T10:20:17.266Z,3.70
2018-11-26T10:22:45.715Z,3.80
2018-11-26T10:25:14.966Z,3.70
2018-11-26T10:27:42.964Z,3.60
2018-11-26T10:30:13.926Z,3.60
2018-11-26T10:32:42.402Z,3.60
2018-11-26T10:35:13.362Z,3.70
2018-11-26T10:37:41.373Z,3.80
2018-11-26T10:40:19.411Z,3.70
2018-11-26T10:42:47.395Z,3.80
2018-11-26T10:45:19.486Z,3.70
2018-11-26T10:47:47.515Z,3.80
2018-11-26T10:50:16.608Z,3.80
2018-11-26T10:52:45.930Z,3.80
2018-11-26T10:55:16.346Z,3.70
2018-11-26T10:57:44.328Z,3.70
2018-11-26T11:00:19.175Z,3.70
2018-11-26T11:02:47.185Z,3.60
2018-11-26T11:05:15.276Z,3.60
2018-11-26T11:07:43.277Z,3.60
2018-11-26T11:10:17.382Z,3.80
2018-11-26T11:12:45.389Z,3.80
2018-11-26T11:15:13.613Z,3.80
2018-11-26T11:17:41.640Z,3.70
2018-11-26T11:20:13.993Z,3.80
2018-11-26T11:22:42.014Z,3.70
2018-11-26T11:25:12.245Z,3.70
2018-11-26T11:27:40.222Z,3.80
2018-11-26T11:30:30.095Z,3.90
2018-11-26T11:32:58.088Z,3.80
2018-11-26T11:35:26.146Z,3.70
2018-11-26T11:37:54.727Z,3.80
2018-11-26T11:40:27.077Z,3.70
2018-11-26T11:42:55.372Z,3.70
2018-11-26T11:45:23.794Z,3.60
2018-11-26T11:47:51.807Z,3.60
2018-11-26T11:50:20.611Z,3.60
2018-11-26T11:52:48.994Z,3.70
2018-11-26T11:55:18.269Z,3.90
2018-11-26T11:57:46.245Z,3.90
2018-11-26T12:00:24.051Z,3.90
2018-11-26T12:02:52.025Z,3.80
2018-11-26T12:05:20.099Z,3.60
2018-11-26T12:07:48.062Z,3.70
2018-11-26T12:10:16.131Z,3.60
2018-11-26T12:12:44.089Z,3.60
2018-11-26T12:15:13.591Z,3.60
2018-11-26T12:17:42.599Z,3.70
2018-11-26T12:20:11.671Z,3.70
2018-11-26T12:22:39.963Z,3.70
2018-11-26T12:25:11.527Z,3.70
2018-11-26T12:27:39.603Z,3.80
2018-11-26T12:30:27.633Z,3.90
2018-11-26T12:32:55.914Z,3.80
2018-11-26T12:35:23.906Z,3.80
2018-11-26T12:37:51.966Z,4.00
2018-11-26T12:40:22.990Z,3.90
2018-11-26T12:42:52.568Z,3.90
2018-11-26T12:45:23.548Z,3.90
2018-11-26T12:47:52.253Z,3.90
2018-11-26T12:50:20.592Z,3.80
2018-11-26T12:52:48.795Z,3.90
2018-11-26T12:55:17.785Z,3.90
2018-11-26T12:57:46.738Z,3.80
2018-11-26T13:00:16.862Z,3.80
2018-11-26T13:02:46.167Z,3.80
2018-11-26T13:05:15.574Z,3.80
2018-11-26T13:07:43.599Z,3.90
2018-11-26T13:10:14.529Z,3.90
2018-11-26T13:12:42.679Z,3.90
2018-11-26T13:15:18.485Z,3.80
2018-11-26T13:17:46.535Z,3.90
2018-11-26T13:20:16.580Z,3.90
2018-11-26T13:22:44.886Z,3.90
2018-11-26T13:25:14.276Z,3.90
2018-11-26T13:27:51.665Z,3.80
2018-11-26T13:30:23.872Z,3.90
2018-11-26T13:32:53.125Z,4.00
2018-11-26T13:35:21.097Z,4.00
2018-11-26T13:37:49.165Z,4.00
2018-11-26T13:40:17.870Z,4.00
2018-11-26T13:42:46.319Z,4.00
2018-11-26T13:45:19.523Z,4.00
2018-11-26T13:47:47.603Z,3.90
2018-11-26T13:50:23.013Z,4.00
2018-11-26T13:52:50.102Z,4.00
2018-11-26T13:55:18.083Z,3.90
2018-11-26T13:57:46.312Z,3.90
2018-11-26T14:00:15.472Z,4.00
2018-11-26T14:02:43.471Z,4.00
2018-11-26T14:05:13.725Z,4.00
2018-11-26T14:07:41.947Z,3.90
2018-11-26T14:10:12.203Z,4.00
2018-11-26T14:12:40.815Z,3.90
2018-11-26T14:15:12.044Z,4.00
2018-11-26T14:17:40.251Z,3.90
2018-11-26T14:20:10.883Z,4.00
2018-11-26T14:22:39.066Z,4.00
2018-11-26T14:25:11.573Z,4.00
2018-11-26T14:27:39.985Z,4.00
2018-11-26T14:30:11.557Z,4.10
2018-11-26T14:32:39.667Z,4.20
2018-11-26T14:35:08.271Z,4.20
2018-11-26T14:37:36.314Z,4.00
2018-11-26T14:40:06.566Z,4.00
2018-11-26T14:42:34.667Z,4.10
2018-11-26T14:45:02.622Z,4.10
2018-11-26T14:47:30.586Z,4.10
2018-11-26T14:49:58.637Z,4.20
2018-11-26T14:52:26.702Z,4.10
2018-11-26T14:54:54.679Z,4.00
2018-11-26T14:57:22.750Z,4.00
2018-11-26T14:59:50.764Z,4.00
2018-11-26T15:02:18.797Z,3.90
2018-11-26T15:04:46.791Z,3.90
2018-11-26T15:07:14.801Z,4.00
2018-11-26T15:09:42.831Z,3.90
2018-11-26T15:12:11.282Z,4.00
2018-11-26T15:14:39.352Z,4.00
2018-11-26T15:17:07.422Z,4.00
2018-11-26T15:19:35.388Z,4.00
2018-11-26T15:22:03.401Z,4.00
2018-11-26T15:24:31.363Z,4.10
2018-11-26T15:26:59.432Z,4.00
2018-11-26T15:29:28.068Z,4.10
2018-11-26T15:31:56.067Z,4.10
2018-11-26T15:34:24.031Z,4.10
2018-11-26T15:36:52.038Z,4.00
2018-11-26T15:39:20.005Z,4.00
2018-11-26T15:41:48.043Z,4.00
2018-11-26T15:44:16.034Z,4.00
2018-11-26T15:46:44.041Z,4.00
2018-11-26T15:49:12.156Z,4.00
2018-11-26T15:51:40.144Z,4.10
2018-11-26T15:54:08.119Z,4.00
2018-11-26T15:56:36.083Z,4.10
2018-11-26T15:59:04.067Z,4.10
2018-11-26T16:01:32.079Z,4.20
2018-11-26T16:04:00.080Z,4.10
2018-11-26T16:06:28.210Z,4.10
2018-11-26T16:08:56.395Z,4.00
2018-11-26T16:11:24.455Z,4.10
2018-11-26T16:13:52.431Z,4.10
2018-11-26T16:16:20.421Z,4.10
2018-11-26T16:18:48.388Z,4.10
2018-11-26T16:21:22.754Z,4.10
2018-11-26T16:23:50.777Z,4.10
2018-11-26T16:26:18.745Z,4.20
2018-11-26T16:28:46.707Z,4.20
2018-11-26T16:31:14.685Z,4.20
2018-11-26T16:33:42.688Z,4.10
2018-11-26T16:36:10.683Z,4.20
2018-11-26T16:38:38.877Z,4.20
2018-11-26T16:41:06.871Z,4.20
2018-11-26T16:43:34.833Z,4.30
2018-11-26T16:46:02.829Z,4.20
2018-11-26T16:48:30.772Z,4.10
2018-11-26T16:50:58.722Z,4.10
2018-11-26T16:53:26.699Z,4.10
2018-11-26T16:55:54.739Z,4.10
2018-11-26T16:58:22.842Z,4.10
2018-11-26T17:00:50.839Z,4.10
2018-11-26T17:03:18.909Z,4.00
2018-11-26T17:05:46.906Z,4.10
2018-11-26T17:08:15.719Z,4.20
2018-11-26T17:10:44.214Z,4.10
2018-11-26T17:13:13.367Z,4.10
2018-11-26T17:15:41.586Z,4.10
2018-11-26T17:18:09.660Z,4.10
2018-11-26T17:20:38.130Z,4.20
2018-11-26T17:23:06.776Z,4.20
2018-11-26T17:25:34.762Z,4.20
2018-11-26T17:28:02.774Z,4.20
2018-11-26T17:30:31.410Z,4.20
2018-11-26T17:33:00.961Z,4.20
2018-11-26T17:35:29.628Z,4.20
2018-11-26T17:37:57.691Z,4.20
2018-11-26T17:40:25.997Z,4.10
2018-11-26T17:42:54.410Z,4.20
2018-11-26T17:45:23.099Z,4.30
2018-11-26T17:47:53.348Z,4.20
2018-11-26T17:50:24.799Z,4.10
2018-11-26T17:52:52.807Z,4.10
2018-11-26T17:55:20.979Z,4.20
2018-11-26T17:57:48.953Z,4.20
2018-11-26T18:00:19.575Z,4.20
2018-11-26T18:02:47.652Z,4.20
2018-11-26T18:05:16.848Z,4.20
2018-11-26T18:07:45.848Z,4.20
2018-11-26T18:10:14.900Z,4.20
2018-11-26T18:12:42.890Z,4.20
2018-11-26T18:15:12.219Z,4.20
2018-11-26T18:17:40.347Z,4.20
2018-11-26T18:20:21.223Z,4.20
2018-11-26T18:22:50.802Z,4.20
2018-11-26T18:25:19.411Z,4.20
2018-11-26T18:27:54.249Z,4.20
2018-11-26T18:30:27.240Z,4.20
2018-11-26T18:32:55.292Z,4.20
2018-11-26T18:35:23.250Z,4.20
2018-11-26T18:37:51.262Z,4.20
2018-11-26T18:40:19.303Z,4.20
2018-11-26T18:42:47.375Z,4.20
2018-11-26T18:45:16.715Z,4.20
2018-11-26T18:47:45.352Z,4.20
2018-11-26T18:50:16.398Z,4.30
2018-11-26T18:52:44.994Z,4.20
2018-11-26T18:55:12.997Z,4.20
2018-11-26T18:57:41.429Z,4.20
2018-11-26T19:00:13.094Z,4.20
2018-11-26T19:02:41.820Z,4.20
2018-11-26T19:05:10.043Z,4.20
2018-11-26T19:07:38.209Z,4.20
2018-11-26T19:10:11.863Z,4.20
2018-11-26T19:12:40.028Z,4.20
2018-11-26T19:15:15.739Z,4.20
2018-11-26T19:17:43.755Z,4.20
2018-11-26T19:20:12.232Z,4.30
2018-11-26T19:22:40.566Z,4.20
2018-11-26T19:25:09.928Z,4.10
2018-11-26T19:27:37.880Z,4.10
2018-11-26T19:30:09.094Z,4.10
2018-11-26T19:32:37.126Z,4.10
2018-11-26T19:35:06.792Z,4.20
2018-11-26T19:37:35.864Z,4.10
2018-11-26T19:40:07.630Z,4.20
2018-11-26T19:42:35.594Z,4.10
2018-11-26T19:45:03.649Z,4.20
2018-11-26T19:47:31.622Z,4.10
2018-11-26T19:50:02.349Z,4.10
2018-11-26T19:52:27.612Z,4.10
2018-11-26T19:54:55.629Z,4.10
2018-11-26T19:57:23.607Z,4.10
2018-11-26T19:59:51.595Z,4.20
2018-11-26T20:02:19.564Z,4.20
2018-11-26T20:04:51.702Z,4.20
2018-11-26T20:07:19.691Z,4.20
2018-11-26T20:09:47.708Z,4.20
2018-11-26T20:12:16.542Z,4.20
2018-11-26T20:14:44.692Z,4.20
2018-11-26T20:17:12.719Z,4.20
2018-11-26T20:19:40.741Z,4.20
2018-11-26T20:22:08.744Z,4.20
2018-11-26T20:24:37.692Z,4.10
2018-11-26T20:27:05.763Z,4.20
2018-11-26T20:29:33.763Z,4.10
2018-11-26T20:32:01.738Z,4.10
2018-11-26T20:34:30.075Z,4.10
2018-11-26T20:36:58.091Z,4.10
2018-11-26T20:39:26.068Z,4.20
2018-11-26T20:41:54.073Z,4.20
2018-11-26T20:44:22.268Z,4.20
2018-11-26T20:46:50.268Z,4.10
2018-11-26T20:49:18.239Z,4.10
2018-11-26T20:51:46.225Z,4.20
2018-11-26T20:54:14.240Z,4.30
2018-11-26T20:56:42.226Z,4.30
2018-11-26T20:59:10.261Z,4.20
2018-11-26T21:01:38.258Z,4.20
2018-11-26T21:04:06.438Z,4.20
2018-11-26T21:06:34.425Z,4.10
2018-11-26T21:09:02.437Z,4.20
2018-11-26T21:11:30.559Z,4.10
2018-11-26T21:13:58.538Z,4.10
2018-11-26T21:16:26.553Z,4.20
2018-11-26T21:18:54.533Z,4.20
2018-11-26T21:21:22.530Z,4.20
2018-11-26T21:23:50.487Z,4.20
2018-11-26T21:26:18.455Z,4.10
2018-11-26T21:28:46.412Z,4.10
2018-11-26T21:31:14.479Z,4.10
2018-11-26T21:33:42.442Z,4.10
2018-11-26T21:36:10.410Z,4.10
2018-11-26T21:38:39.744Z,4.10
2018-11-26T21:41:07.754Z,4.10
2018-11-26T21:43:35.758Z,4.10
2018-11-26T21:46:03.951Z,4.00
2018-11-26T21:48:31.948Z,4.10
2018-11-26T21:50:59.914Z,4.20
2018-11-26T21:53:27.903Z,4.20
2018-11-26T21:55:55.918Z,4.20
2018-11-26T21:58:23.879Z,4.20
2018-11-26T22:00:53.621Z,4.10
2018-11-26T22:03:21.604Z,4.10
2018-11-26T22:05:49.586Z,4.10
2018-11-26T22:08:17.576Z,4.20
2018-11-26T22:10:45.591Z,4.20
2018-11-26T22:13:16.303Z,4.20
2018-11-26T22:15:44.367Z,4.20
2018-11-26T22:18:12.343Z,4.20
2018-11-26T22:20:40.317Z,4.10
2018-11-26T22:23:09.127Z,4.10
2018-11-26T22:25:37.354Z,4.10
2018-11-26T22:28:08.027Z,4.10
2018-11-26T22:30:36.910Z,4.00
2018-11-26T22:33:05.101Z,4.10
2018-11-26T22:35:33.094Z,4.20
2018-11-26T22:38:01.224Z,4.20
2018-11-26T22:40:29.234Z,4.20
2018-11-26T22:42:57.193Z,4.10
2018-11-26T22:45:28.156Z,4.00
2018-11-26T22:47:59.630Z,4.00
2018-11-26T22:50:27.590Z,4.10
2018-11-26T22:52:55.562Z,4.00
2018-11-26T22:55:23.633Z,4.10
2018-11-26T22:57:51.666Z,4.00
2018-11-26T23:00:29.988Z,4.10
2018-11-26T23:02:59.259Z,4.10
2018-11-26T23:05:27.499Z,4.10
2018-11-26T23:07:55.467Z,4.10
2018-11-26T23:10:23.462Z,4.10
2018-11-26T23:12:51.450Z,4.10
2018-11-26T23:15:19.620Z,4.10
2018-11-26T23:17:48.059Z,4.00
2018-11-26T23:20:18.183Z,4.00
2018-11-26T23:22:46.253Z,4.00
2018-11-26T23:25:15.189Z,4.00
2018-11-26T23:27:43.281Z,3.90
2018-11-26T23:30:31.021Z,3.90
2018-11-26T23:33:02.010Z,3.90
2018-11-26T23:35:29.965Z,4.00
2018-11-26T23:37:57.965Z,4.00
2018-11-26T23:40:25.919Z,4.00
2018-11-26T23:42:53.875Z,4.00
2018-11-26T23:45:23.891Z,4.00
2018-11-26T23:47:51.883Z,4.00
2018-11-26T23:50:19.895Z,3.90
2018-11-26T23:52:47.984Z,3.90
2018-11-26T23:55:17.887Z,3.80
2018-11-26T23:57:45.891Z,3.80
